createdAt,value
2019-01-16T00:02:35.957Z,4.53
2019-01-16T00:05:29.932Z,4.57
2019-01-16T00:08:25.912Z,4.43
2019-01-16T00:11:17.814Z,5.73
2019-01-16T00:14:05.078Z,4.40
2019-01-16T00:16:45.000Z,5.67
2019-01-16T00:19:28.788Z,4.80
2019-01-16T00:22:11.218Z,4.73
2019-01-16T00:25:00.806Z,4.17
2019-01-16T00:27:53.010Z,4.60
2019-01-16T00:30:42.106Z,4.63
2019-01-16T00:33:21.569Z,5.33
2019-01-16T00:36:22.988Z,5.33
2019-01-16T00:39:19.618Z,4.45
2019-01-16T00:42:07.151Z,5.37
2019-01-16T00:45:05.128Z,5.17
2019-01-16T00:47:48.362Z,4.40
2019-01-16T00:50:36.945Z,5.37
2019-01-16T00:53:16.408Z,4.70
2019-01-16T00:55:53.634Z,5.30
2019-01-16T00:58:42.698Z,5.30
2019-01-16T01:01:25.370Z,5.83
2019-01-16T01:04:29.980Z,5.20
2019-01-16T01:07:31.386Z,5.80
2019-01-16T01:10:20.433Z,5.50
2019-01-16T01:13:21.922Z,5.43
2019-01-16T01:16:06.802Z,5.67
2019-01-16T01:18:54.633Z,6.37
2019-01-16T01:21:35.085Z,5.10
2019-01-16T01:24:30.426Z,4.37
2019-01-16T01:27:25.770Z,4.85
2019-01-16T01:30:06.268Z,6.03
2019-01-16T01:33:04.944Z,5.40
2019-01-16T01:36:02.901Z,5.57
2019-01-16T01:38:49.934Z,5.70
2019-01-16T01:41:53.895Z,5.70
2019-01-16T01:44:42.975Z,5.40
2019-01-16T01:47:34.796Z,5.90
2019-01-16T01:50:31.137Z,5.13
2019-01-16T01:53:19.021Z,5.63
2019-01-16T01:56:17.017Z,6.12
2019-01-16T01:59:08.747Z,5.40
2019-01-16T02:02:00.776Z,5.72
2019-01-16T02:04:52.804Z,6.40
2019-01-16T02:07:40.619Z,6.85
2019-01-16T02:10:27.411Z,6.90
2019-01-16T02:13:19.314Z,7.43
2019-01-16T02:16:17.305Z,7.67
2019-01-16T02:19:17.000Z,8.33
2019-01-16T02:22:04.064Z,9.10
2019-01-16T02:24:48.770Z,8.88
2019-01-16T02:27:44.084Z,8.73
2019-01-16T02:30:36.321Z,8.88
2019-01-16T02:33:31.584Z,8.90
2019-01-16T02:36:12.487Z,8.40
2019-01-16T02:39:00.404Z,8.93
2019-01-16T02:41:58.580Z,8.23
2019-01-16T02:44:42.433Z,8.85
2019-01-16T02:47:30.437Z,9.48
2019-01-16T02:50:20.119Z,8.00
2019-01-16T02:53:09.490Z,8.53
2019-01-16T02:56:07.539Z,8.47
2019-01-16T02:58:48.360Z,7.70
2019-01-16T03:01:55.810Z,7.97
2019-01-16T03:04:39.888Z,8.13
2019-01-16T03:07:19.655Z,8.03
2019-01-16T03:09:59.358Z,8.20
2019-01-16T03:12:47.210Z,8.60
2019-01-16T03:15:48.339Z,9.13
2019-01-16T03:18:32.135Z,8.77
2019-01-16T03:21:19.911Z,9.83
2019-01-16T03:24:18.081Z,8.07
2019-01-16T03:27:03.154Z,8.40
2019-01-16T03:29:55.023Z,8.03
2019-01-16T03:32:42.566Z,8.73
2019-01-16T03:35:23.993Z,8.63
2019-01-16T03:38:13.931Z,8.90
2019-01-16T03:41:03.907Z,8.40
2019-01-16T03:43:59.713Z,8.60
2019-01-16T03:46:38.678Z,8.60
2019-01-16T03:49:37.581Z,9.17
2019-01-16T03:52:23.966Z,8.55
2019-01-16T03:55:13.061Z,8.73
2019-01-16T03:58:08.279Z,8.40
2019-01-16T04:01:06.182Z,8.43
2019-01-16T04:04:01.877Z,8.70
2019-01-16T04:06:56.940Z,8.63
2019-01-16T04:09:44.440Z,9.57
2019-01-16T04:12:27.590Z,7.73
2019-01-16T04:15:15.587Z,9.23
2019-01-16T04:18:03.505Z,7.80
2019-01-16T04:20:46.601Z,8.40
2019-01-16T04:23:35.684Z,8.75
2019-01-16T04:26:17.700Z,8.53
2019-01-16T04:29:15.543Z,8.13
2019-01-16T04:32:00.279Z,8.97
2019-01-16T04:34:46.112Z,8.90
2019-01-16T04:37:25.838Z,8.60
2019-01-16T04:40:17.359Z,8.60
2019-01-16T04:43:12.397Z,8.30
2019-01-16T04:46:07.569Z,8.70
2019-01-16T04:49:02.614Z,8.40
2019-01-16T04:51:43.915Z,8.63
2019-01-16T04:54:33.435Z,8.98
2019-01-16T04:57:25.205Z,8.30
2019-01-16T05:00:26.471Z,8.20
2019-01-16T05:03:22.093Z,8.30
2019-01-16T05:06:07.476Z,8.40
2019-01-16T05:08:55.159Z,8.50
2019-01-16T05:11:44.241Z,8.23
2019-01-16T05:14:39.300Z,7.87
2019-01-16T05:17:33.373Z,8.70
2019-01-16T05:20:21.989Z,7.67
2019-01-16T05:23:26.159Z,8.75
2019-01-16T05:26:06.348Z,7.50
2019-01-16T05:28:54.551Z,8.10
2019-01-16T05:31:42.215Z,8.30
2019-01-16T05:34:30.140Z,7.70
2019-01-16T05:37:19.372Z,8.60
2019-01-16T05:40:07.701Z,8.33
2019-01-16T05:42:50.289Z,7.27
2019-01-16T05:45:42.447Z,7.70
2019-01-16T05:48:49.426Z,7.20
2019-01-16T05:51:50.521Z,8.10
2019-01-16T05:54:36.283Z,7.33
2019-01-16T05:57:25.618Z,7.70
2019-01-16T06:00:17.612Z,7.53
2019-01-16T06:03:05.374Z,7.87
2019-01-16T06:05:56.402Z,7.87
2019-01-16T06:08:47.450Z,7.30
2019-01-16T06:11:49.011Z,7.90
2019-01-16T06:14:43.768Z,7.62
2019-01-16T06:17:30.294Z,7.90
2019-01-16T06:20:17.947Z,7.70
2019-01-16T06:23:04.451Z,7.10
2019-01-16T06:25:57.495Z,7.57
2019-01-16T06:28:52.775Z,6.93
2019-01-16T06:31:35.739Z,7.50
2019-01-16T06:34:28.937Z,8.00
2019-01-16T06:37:16.775Z,7.73
2019-01-16T06:40:15.303Z,8.43
2019-01-16T06:43:14.624Z,8.50
2019-01-16T06:46:08.827Z,7.60
2019-01-16T06:48:58.604Z,8.97
2019-01-16T06:51:53.734Z,9.10
2019-01-16T06:54:47.885Z,10.07
2019-01-16T06:57:46.192Z,8.23
2019-01-16T07:00:28.083Z,8.20
2019-01-16T07:03:17.161Z,8.80
2019-01-16T07:06:09.699Z,8.03
2019-01-16T07:09:18.457Z,8.20
2019-01-16T07:11:58.616Z,9.60
2019-01-16T07:14:47.781Z,8.60
2019-01-16T07:17:30.217Z,8.73
2019-01-16T07:20:15.067Z,8.60
2019-01-16T07:22:57.999Z,7.80
2019-01-16T07:25:46.585Z,8.10
2019-01-16T07:28:32.137Z,7.40
2019-01-16T07:31:21.289Z,8.18
2019-01-16T07:34:22.152Z,7.12
2019-01-16T07:37:05.767Z,7.87
2019-01-16T07:39:46.301Z,6.60
2019-01-16T07:42:46.768Z,7.83
2019-01-16T07:45:40.983Z,7.17
2019-01-16T07:48:28.864Z,6.40
2019-01-16T07:51:15.746Z,6.93
2019-01-16T07:54:07.847Z,6.95
2019-01-16T07:56:59.549Z,6.55
2019-01-16T07:59:47.305Z,7.17
2019-01-16T08:02:36.241Z,6.30
2019-01-16T08:05:37.727Z,6.97
2019-01-16T08:08:19.183Z,6.70
2019-01-16T08:11:07.213Z,8.07
2019-01-16T08:14:01.613Z,7.73
2019-01-16T08:16:42.882Z,8.75
2019-01-16T08:19:37.828Z,7.93
2019-01-16T08:22:33.032Z,8.83
2019-01-16T08:25:28.043Z,6.57
2019-01-16T08:28:19.985Z,7.27
2019-01-16T08:31:15.207Z,8.40
2019-01-16T08:34:04.344Z,7.10
2019-01-16T08:36:59.358Z,6.47
2019-01-16T08:40:03.515Z,6.87
2019-01-16T08:43:04.501Z,6.92
2019-01-16T08:45:53.730Z,6.70
2019-01-16T08:48:45.417Z,6.42
2019-01-16T08:51:34.241Z,7.60
2019-01-16T08:54:22.115Z,7.30
2019-01-16T08:57:29.395Z,7.30
2019-01-16T09:00:27.403Z,7.40
2019-01-16T09:03:15.179Z,6.53
2019-01-16T09:06:16.363Z,6.20
2019-01-16T09:09:04.098Z,6.65
2019-01-16T09:11:46.623Z,7.30
2019-01-16T09:14:34.309Z,7.30
2019-01-16T09:17:24.541Z,6.23
2019-01-16T09:20:14.807Z,7.90
2019-01-16T09:22:57.635Z,7.17
2019-01-16T09:25:36.253Z,5.60
2019-01-16T09:28:24.233Z,7.23
2019-01-16T09:31:17.184Z,5.45
2019-01-16T09:34:04.933Z,6.40
2019-01-16T09:36:54.015Z,6.57
2019-01-16T09:39:49.216Z,6.37
2019-01-16T09:42:36.603Z,6.20
2019-01-16T09:45:25.048Z,6.47
2019-01-16T09:48:18.004Z,6.47
2019-01-16T09:51:09.995Z,5.87
2019-01-16T09:53:50.899Z,6.90
2019-01-16T09:56:39.090Z,6.23
2019-01-16T09:59:31.094Z,6.53
2019-01-16T10:02:15.264Z,5.70
2019-01-16T10:05:18.140Z,6.37
2019-01-16T10:08:03.141Z,6.50
2019-01-16T10:10:52.039Z,6.57
2019-01-16T10:13:45.962Z,5.93
2019-01-16T10:16:37.948Z,6.17
2019-01-16T10:19:17.357Z,5.47
2019-01-16T10:22:24.531Z,5.30
2019-01-16T10:25:05.443Z,5.80
2019-01-16T10:28:00.394Z,5.80
2019-01-16T10:30:52.540Z,5.47
2019-01-16T10:33:44.359Z,5.83
2019-01-16T10:36:36.258Z,5.90
2019-01-16T10:39:33.478Z,6.00
2019-01-16T10:42:25.084Z,6.10
2019-01-16T10:45:03.636Z,5.72
2019-01-16T10:47:50.711Z,5.37
2019-01-16T10:50:42.526Z,5.97
2019-01-16T10:53:50.796Z,5.90
2019-01-16T10:56:51.781Z,5.90
2019-01-16T10:59:52.472Z,6.03
2019-01-16T11:02:49.961Z,5.30
2019-01-16T11:05:44.837Z,5.93
2019-01-16T11:08:31.812Z,5.40
2019-01-16T11:11:20.072Z,5.40
2019-01-16T11:14:09.143Z,5.07
2019-01-16T11:17:00.844Z,4.70
2019-01-16T11:19:44.848Z,5.23
2019-01-16T11:22:32.666Z,6.30
2019-01-16T11:25:24.220Z,5.45
2019-01-16T11:28:51.750Z,4.85
2019-01-16T11:32:05.158Z,5.03
2019-01-16T11:35:13.964Z,4.70
2019-01-16T11:38:19.541Z,4.10
2019-01-16T11:41:37.832Z,4.07
2019-01-16T11:44:55.672Z,4.30
2019-01-16T11:48:03.505Z,4.80
2019-01-16T11:51:18.731Z,4.10
2019-01-16T11:54:38.465Z,4.23
2019-01-16T11:57:55.822Z,4.93
2019-01-16T12:01:13.738Z,4.30
2019-01-16T12:04:35.682Z,5.20
2019-01-16T12:07:55.827Z,4.80
2019-01-16T12:11:05.990Z,4.80
2019-01-16T12:14:19.824Z,4.50
2019-01-16T12:17:29.787Z,5.00
2019-01-16T12:20:40.679Z,5.22
2019-01-16T12:23:49.577Z,5.50
2019-01-16T12:26:59.130Z,4.80
2019-01-16T12:30:09.118Z,3.90
2019-01-16T12:33:39.232Z,4.30
2019-01-16T12:36:59.716Z,4.77
2019-01-16T12:40:09.433Z,4.20
2019-01-16T12:43:29.206Z,5.20
2019-01-16T12:46:43.967Z,5.20
2019-01-16T12:50:05.124Z,4.80
2019-01-16T12:53:21.372Z,5.30
2019-01-16T12:56:47.359Z,5.17
2019-01-16T13:00:07.057Z,5.13
2019-01-16T13:03:20.196Z,4.97
2019-01-16T13:06:28.958Z,5.20
2019-01-16T13:09:42.273Z,5.30
2019-01-16T13:12:56.426Z,5.07
2019-01-16T13:16:12.486Z,4.85
2019-01-16T13:19:35.306Z,4.80
2019-01-16T13:22:55.183Z,5.87
2019-01-16T13:26:03.484Z,5.07
2019-01-16T13:29:13.408Z,4.73
2019-01-16T13:32:26.536Z,4.70
2019-01-16T13:35:35.260Z,5.00
2019-01-16T13:39:02.282Z,4.95
2019-01-16T13:42:24.535Z,4.20
2019-01-16T13:45:31.582Z,5.05
2019-01-16T13:48:55.390Z,5.10
2019-01-16T13:52:06.309Z,4.95
2019-01-16T13:55:23.642Z,5.80
2019-01-16T13:58:36.518Z,5.40
2019-01-16T14:01:45.427Z,5.27
2019-01-16T14:05:07.603Z,4.13
2019-01-16T14:08:15.693Z,5.67
2019-01-16T14:11:26.832Z,4.53
2019-01-16T14:14:41.603Z,4.50
2019-01-16T14:17:50.483Z,4.60
2019-01-16T14:20:59.146Z,4.90
2019-01-16T14:24:08.058Z,4.90
2019-01-16T14:27:22.341Z,4.87
2019-01-16T14:30:42.770Z,4.87
2019-01-16T14:33:54.154Z,4.30
2019-01-16T14:37:11.797Z,5.20
2019-01-16T14:40:28.673Z,4.57
2019-01-16T14:43:39.366Z,4.83
2019-01-16T14:46:49.463Z,4.93
2019-01-16T14:49:57.369Z,4.57
2019-01-16T14:53:04.269Z,4.73
2019-01-16T14:56:16.786Z,5.13
2019-01-16T14:59:38.298Z,6.10
2019-01-16T15:02:48.799Z,5.00
2019-01-16T15:05:57.444Z,5.87
2019-01-16T15:09:23.579Z,6.13
2019-01-16T15:12:36.398Z,4.37
2019-01-16T15:15:50.373Z,5.27
2019-01-16T15:18:57.509Z,5.40
2019-01-16T15:22:12.270Z,5.60
2019-01-16T15:25:16.328Z,5.70
2019-01-16T15:28:23.417Z,6.87
2019-01-16T15:31:33.087Z,5.17
2019-01-16T15:34:53.751Z,6.15
2019-01-16T15:37:59.267Z,6.23
2019-01-16T15:41:06.767Z,5.70
2019-01-16T15:44:18.219Z,6.77
2019-01-16T15:47:27.630Z,6.47
2019-01-16T15:50:50.720Z,6.75
2019-01-16T15:54:08.838Z,6.80
2019-01-16T15:57:31.548Z,6.40
2019-01-16T16:00:53.005Z,5.97
2019-01-16T16:04:18.735Z,6.47
2019-01-16T16:07:43.751Z,5.77
2019-01-16T16:10:51.759Z,5.40
2019-01-16T16:14:04.839Z,5.57
2019-01-16T16:17:13.885Z,6.60
2019-01-16T16:20:31.296Z,5.63
2019-01-16T16:23:56.861Z,6.40
2019-01-16T16:27:11.340Z,6.57
2019-01-16T16:30:34.897Z,6.28
2019-01-16T16:33:59.997Z,6.20
2019-01-16T16:37:10.441Z,5.95
2019-01-16T16:40:23.298Z,6.57
2019-01-16T16:43:39.232Z,5.87
2019-01-16T16:46:48.165Z,6.23
2019-01-16T16:49:56.939Z,6.50
2019-01-16T16:53:08.804Z,8.07
2019-01-16T16:56:32.166Z,6.62
2019-01-16T16:59:41.022Z,7.53
2019-01-16T17:02:59.115Z,7.10
2019-01-16T17:06:12.171Z,7.65
2019-01-16T17:09:26.286Z,6.83
2019-01-16T17:12:40.297Z,7.90
2019-01-16T17:15:57.955Z,8.50
2019-01-16T17:19:18.292Z,7.25
2019-01-16T17:22:32.491Z,9.95
2019-01-16T17:25:40.005Z,9.60
2019-01-16T17:28:48.970Z,8.83
2019-01-16T17:32:09.337Z,8.03
2019-01-16T17:35:20.393Z,8.47
2019-01-16T17:38:35.232Z,8.40
2019-01-16T17:41:43.755Z,8.67
2019-01-16T17:45:10.167Z,8.50
2019-01-16T17:48:31.442Z,8.90
2019-01-16T17:51:40.369Z,9.33
2019-01-16T17:54:48.548Z,10.20
2019-01-16T17:58:15.131Z,9.70
2019-01-16T18:01:36.190Z,10.37
2019-01-16T18:04:55.576Z,10.80
2019-01-16T18:08:06.250Z,10.63
2019-01-16T18:11:32.346Z,10.60
2019-01-16T18:14:52.883Z,10.25
2019-01-16T18:18:01.976Z,11.37
2019-01-16T18:21:13.177Z,11.07
2019-01-16T18:24:40.060Z,11.17
2019-01-16T18:27:58.173Z,12.67
2019-01-16T18:31:08.853Z,12.95
2019-01-16T18:34:33.261Z,12.13
2019-01-16T18:37:42.907Z,12.73
2019-01-16T18:40:51.776Z,12.63
2019-01-16T18:44:01.452Z,11.70
2019-01-16T18:47:06.800Z,12.50
2019-01-16T18:50:17.261Z,12.70
2019-01-16T18:53:26.979Z,12.47
2019-01-16T18:56:35.043Z,13.03
2019-01-16T18:59:48.922Z,12.30
2019-01-16T19:03:08.608Z,11.20
2019-01-16T19:06:22.688Z,11.53
2019-01-16T19:09:42.204Z,10.25
2019-01-16T19:12:56.116Z,9.20
2019-01-16T19:16:06.187Z,10.40
2019-01-16T19:19:29.223Z,11.43
2019-01-16T19:22:36.762Z,10.20
2019-01-16T19:25:49.626Z,11.07
2019-01-16T19:28:58.274Z,11.93
2019-01-16T19:32:07.238Z,12.80
2019-01-16T19:35:19.537Z,13.67
2019-01-16T19:38:28.313Z,13.68
2019-01-16T19:41:40.683Z,14.23
2019-01-16T19:44:49.642Z,16.27
2019-01-16T19:48:01.753Z,14.45
2019-01-16T19:51:10.175Z,13.07
2019-01-16T19:54:24.642Z,12.63
2019-01-16T19:57:35.650Z,12.40
2019-01-16T20:00:47.586Z,11.90
2019-01-16T20:04:12.718Z,10.90
2019-01-16T20:07:23.265Z,11.23
2019-01-16T20:10:40.546Z,11.47
2019-01-16T20:14:04.451Z,11.50
2019-01-16T20:17:13.820Z,10.10
2019-01-16T20:20:23.861Z,10.27
2019-01-16T20:23:41.004Z,10.03
2019-01-16T20:26:49.483Z,9.80
2019-01-16T20:29:55.707Z,10.90
2019-01-16T20:33:13.087Z,10.95
2019-01-16T20:36:22.085Z,11.43
2019-01-16T20:39:31.788Z,10.03
2019-01-16T20:42:49.079Z,10.60
2019-01-16T20:45:59.180Z,10.40
2019-01-16T20:49:09.372Z,10.73
2019-01-16T20:52:17.151Z,10.90
2019-01-16T20:55:25.275Z,10.40
2019-01-16T20:58:40.402Z,10.28
2019-01-16T21:01:48.011Z,10.07
2019-01-16T21:04:55.665Z,10.20
2019-01-16T21:08:20.410Z,11.70
2019-01-16T21:11:29.432Z,10.55
2019-01-16T21:14:46.481Z,9.33
2019-01-16T21:17:56.074Z,9.40
2019-01-16T21:21:14.476Z,9.87
2019-01-16T21:24:24.622Z,10.43
2019-01-16T21:27:32.574Z,10.03
2019-01-16T21:30:41.322Z,9.40
2019-01-16T21:33:56.468Z,10.07
2019-01-16T21:37:01.722Z,9.63
2019-01-16T21:40:21.645Z,9.83
2019-01-16T21:43:28.597Z,8.30
2019-01-16T21:46:53.020Z,10.63
2019-01-16T21:50:20.060Z,8.50
2019-01-16T21:53:30.666Z,9.30
2019-01-16T21:56:45.040Z,9.40
2019-01-16T21:59:52.245Z,8.57
2019-01-16T22:03:03.058Z,9.00
2019-01-16T22:06:22.207Z,9.80
2019-01-16T22:09:44.687Z,11.13
2019-01-16T22:12:53.432Z,9.37
2019-01-16T22:16:05.078Z,9.60
2019-01-16T22:19:15.688Z,9.23
2019-01-16T22:22:35.216Z,8.80
2019-01-16T22:25:55.184Z,9.40
2019-01-16T22:29:07.484Z,9.63
2019-01-16T22:32:20.446Z,9.53
2019-01-16T22:35:34.409Z,8.40
2019-01-16T22:38:43.778Z,9.17
2019-01-16T22:41:52.904Z,8.40
2019-01-16T22:45:13.227Z,8.80
2019-01-16T22:48:18.568Z,9.48
2019-01-16T22:51:38.736Z,9.60
2019-01-16T22:54:53.038Z,9.07
2019-01-16T22:58:01.619Z,9.10
2019-01-16T23:01:34.061Z,9.37
2019-01-16T23:04:42.019Z,10.30
2019-01-16T23:08:09.564Z,10.27
2019-01-16T23:11:18.329Z,9.27
2019-01-16T23:14:33.954Z,8.60
2019-01-16T23:17:54.540Z,8.00
2019-01-16T23:21:06.794Z,7.87
2019-01-16T23:24:30.084Z,8.70
2019-01-16T23:27:38.136Z,8.80
2019-01-16T23:30:47.298Z,8.60
2019-01-16T23:34:10.430Z,7.60
2019-01-16T23:37:18.304Z,7.07
2019-01-16T23:40:32.224Z,8.13
2019-01-16T23:43:54.932Z,7.53
2019-01-16T23:47:04.539Z,7.90
2019-01-16T23:50:30.950Z,7.73
2019-01-16T23:53:57.454Z,7.37
2019-01-16T23:57:16.299Z,7.87
